sensor_id;sensor_type;location;lat;lon;timestamp;P1;durP1;ratioP1;P2;durP2;ratioP2
3066;SDS011;1544;48.834;9.194;2022-07-29T00:01:56;5.37;;;5.07;;
3066;SDS011;1544;48.834;9.194;2022-07-29T00:04:28;5.80;;;5.50;;
3066;SDS011;1544;48.834;9.194;2022-07-29T00:06:59;6.00;;;5.40;;
3066;SDS011;1544;48.834;9.194;2022-07-29T00:09:30;6.10;;;5.60;;
3066;SDS011;1544;48.834;9.194;2022-07-29T00:12:11;6.03;;;5.60;;
3066;SDS011;1544;48.834;9.194;2022-07-29T00:14:43;6.43;;;5.93;;
3066;SDS011;1544;48.834;9.194;2022-07-29T00:17:14;6.30;;;5.90;;
3066;SDS011;1544;48.834;9.194;2022-07-29T00:19:48;6.37;;;5.77;;
3066;SDS011;1544;48.834;9.194;2022-07-29T00:22:19;6.83;;;6.30;;
3066;SDS011;1544;48.834;9.194;2022-07-29T00:24:50;5.73;;;5.33;;
3066;SDS011;1544;48.834;9.194;2022-07-29T00:27:23;6.90;;;6.50;;
3066;SDS011;1544;48.834;9.194;2022-07-29T00:29:54;6.00;;;5.67;;
3066;SDS011;1544;48.834;9.194;2022-07-29T00:32:25;6.67;;;6.17;;
3066;SDS011;1544;48.834;9.194;2022-07-29T00:34:56;5.83;;;5.47;;
3066;SDS011;1544;48.834;9.194;2022-07-29T00:37:46;7.23;;;6.63;;
3066;SDS011;1544;48.834;9.194;2022-07-29T00:40:17;6.57;;;6.17;;
3066;SDS011;1544;48.834;9.194;2022-07-29T00:42:53;6.30;;;5.80;;
3066;SDS011;1544;48.834;9.194;2022-07-29T00:45:25;6.77;;;6.27;;
3066;SDS011;1544;48.834;9.194;2022-07-29T00:47:56;7.33;;;6.43;;
3066;SDS011;1544;48.834;9.194;2022-07-29T00:50:27;7.10;;;6.60;;
3066;SDS011;1544;48.834;9.194;2022-07-29T00:52:58;6.00;;;5.70;;
3066;SDS011;1544;48.834;9.194;2022-07-29T00:55:30;6.33;;;5.93;;
3066;SDS011;1544;48.834;9.194;2022-07-29T00:58:01;6.47;;;6.10;;
3066;SDS011;1544;48.834;9.194;2022-07-29T01:00:33;6.23;;;5.83;;
3066;SDS011;1544;48.834;9.194;2022-07-29T01:03:05;6.07;;;5.67;;
3066;SDS011;1544;48.834;9.194;2022-07-29T01:05:36;6.30;;;5.80;;
3066;SDS011;1544;48.834;9.194;2022-07-29T01:08:20;7.57;;;6.90;;
3066;SDS011;1544;48.834;9.194;2022-07-29T01:10:53;6.00;;;5.60;;
3066;SDS011;1544;48.834;9.194;2022-07-29T01:13:25;6.53;;;6.10;;
3066;SDS011;1544;48.834;9.194;2022-07-29T01:15:59;5.83;;;5.43;;
3066;SDS011;1544;48.834;9.194;2022-07-29T01:18:42;6.97;;;6.47;;
3066;SDS011;1544;48.834;9.194;2022-07-29T01:27:57;7.27;;;6.70;;
3066;SDS011;1544;48.834;9.194;2022-07-29T01:30:59;7.23;;;6.73;;
3066;SDS011;1544;48.834;9.194;2022-07-29T01:33:36;7.00;;;6.50;;
3066;SDS011;1544;48.834;9.194;2022-07-29T01:39:19;8.40;;;7.70;;
3066;SDS011;1544;48.834;9.194;2022-07-29T01:42:10;7.90;;;7.40;;
3066;SDS011;1544;48.834;9.194;2022-07-29T01:47:46;8.10;;;7.40;;
3066;SDS011;1544;48.834;9.194;2022-07-29T01:50:48;8.13;;;7.53;;
3066;SDS011;1544;48.834;9.194;2022-07-29T01:53:26;7.33;;;6.83;;
3066;SDS011;1544;48.834;9.194;2022-07-29T01:56:21;7.80;;;7.20;;
3066;SDS011;1544;48.834;9.194;2022-07-29T01:58:54;7.40;;;6.90;;
3066;SDS011;1544;48.834;9.194;2022-07-29T02:01:27;7.43;;;6.93;;
3066;SDS011;1544;48.834;9.194;2022-07-29T02:04:02;8.57;;;7.97;;
3066;SDS011;1544;48.834;9.194;2022-07-29T02:06:38;7.43;;;6.67;;
3066;SDS011;1544;48.834;9.194;2022-07-29T02:09:12;7.07;;;6.57;;
3066;SDS011;1544;48.834;9.194;2022-07-29T02:11:47;7.43;;;6.90;;
3066;SDS011;1544;48.834;9.194;2022-07-29T02:14:22;6.20;;;5.77;;
3066;SDS011;1544;48.834;9.194;2022-07-29T02:16:54;5.50;;;5.20;;
3066;SDS011;1544;48.834;9.194;2022-07-29T02:19:29;6.67;;;6.27;;
3066;SDS011;1544;48.834;9.194;2022-07-29T02:22:03;5.97;;;5.67;;
3066;SDS011;1544;48.834;9.194;2022-07-29T02:24:37;6.30;;;5.90;;
3066;SDS011;1544;48.834;9.194;2022-07-29T02:27:10;6.40;;;6.00;;
3066;SDS011;1544;48.834;9.194;2022-07-29T02:29:43;6.37;;;6.03;;
3066;SDS011;1544;48.834;9.194;2022-07-29T02:32:17;7.27;;;6.67;;
3066;SDS011;1544;48.834;9.194;2022-07-29T02:34:50;7.13;;;6.73;;
3066;SDS011;1544;48.834;9.194;2022-07-29T02:37:22;6.30;;;5.90;;
3066;SDS011;1544;48.834;9.194;2022-07-29T02:39:54;6.80;;;6.30;;
3066;SDS011;1544;48.834;9.194;2022-07-29T02:42:27;7.00;;;6.50;;
3066;SDS011;1544;48.834;9.194;2022-07-29T02:44:59;7.33;;;6.83;;
3066;SDS011;1544;48.834;9.194;2022-07-29T02:47:37;7.30;;;6.80;;
3066;SDS011;1544;48.834;9.194;2022-07-29T02:55:40;8.20;;;7.70;;
3066;SDS011;1544;48.834;9.194;2022-07-29T03:01:03;7.20;;;6.80;;
3066;SDS011;1544;48.834;9.194;2022-07-29T03:03:46;7.60;;;7.00;;
3066;SDS011;1544;48.834;9.194;2022-07-29T03:06:20;7.53;;;6.93;;
3066;SDS011;1544;48.834;9.194;2022-07-29T03:09:08;8.50;;;7.97;;
3066;SDS011;1544;48.834;9.194;2022-07-29T03:11:43;7.33;;;6.73;;
3066;SDS011;1544;48.834;9.194;2022-07-29T03:14:20;7.70;;;7.20;;
3066;SDS011;1544;48.834;9.194;2022-07-29T03:16:53;9.00;;;8.30;;
3066;SDS011;1544;48.834;9.194;2022-07-29T03:19:24;7.80;;;7.30;;
3066;SDS011;1544;48.834;9.194;2022-07-29T03:21:57;7.90;;;7.33;;
3066;SDS011;1544;48.834;9.194;2022-07-29T03:24:33;7.80;;;7.23;;
3066;SDS011;1544;48.834;9.194;2022-07-29T03:27:06;7.37;;;6.93;;
3066;SDS011;1544;48.834;9.194;2022-07-29T03:29:37;7.70;;;7.00;;
3066;SDS011;1544;48.834;9.194;2022-07-29T03:32:09;6.60;;;6.10;;
3066;SDS011;1544;48.834;9.194;2022-07-29T03:34:40;8.30;;;7.60;;
3066;SDS011;1544;48.834;9.194;2022-07-29T03:37:10;7.83;;;7.30;;
3066;SDS011;1544;48.834;9.194;2022-07-29T03:39:42;7.77;;;7.33;;
3066;SDS011;1544;48.834;9.194;2022-07-29T03:42:15;7.23;;;6.63;;
3066;SDS011;1544;48.834;9.194;2022-07-29T03:44:50;6.70;;;6.33;;
3066;SDS011;1544;48.834;9.194;2022-07-29T03:47:24;6.97;;;6.50;;
3066;SDS011;1544;48.834;9.194;2022-07-29T03:50:18;6.33;;;6.03;;
3066;SDS011;1544;48.834;9.194;2022-07-29T03:52:51;8.57;;;7.77;;
3066;SDS011;1544;48.834;9.194;2022-07-29T03:55:23;8.40;;;7.70;;
3066;SDS011;1544;48.834;9.194;2022-07-29T03:57:54;7.63;;;7.13;;
3066;SDS011;1544;48.834;9.194;2022-07-29T04:00:27;7.30;;;6.87;;
3066;SDS011;1544;48.834;9.194;2022-07-29T04:02:59;7.97;;;7.27;;
3066;SDS011;1544;48.834;9.194;2022-07-29T04:05:32;7.53;;;6.93;;
3066;SDS011;1544;48.834;9.194;2022-07-29T04:08:03;8.10;;;7.47;;
3066;SDS011;1544;48.834;9.194;2022-07-29T04:10:35;7.40;;;7.00;;
3066;SDS011;1544;48.834;9.194;2022-07-29T04:13:06;7.37;;;6.87;;
3066;SDS011;1544;48.834;9.194;2022-07-29T04:15:37;8.00;;;7.40;;
3066;SDS011;1544;48.834;9.194;2022-07-29T04:18:09;8.10;;;7.60;;
3066;SDS011;1544;48.834;9.194;2022-07-29T04:20:40;6.97;;;6.47;;
3066;SDS011;1544;48.834;9.194;2022-07-29T04:23:11;6.37;;;6.07;;
3066;SDS011;1544;48.834;9.194;2022-07-29T04:25:43;7.20;;;6.60;;
3066;SDS011;1544;48.834;9.194;2022-07-29T04:28:14;7.57;;;7.07;;
3066;SDS011;1544;48.834;9.194;2022-07-29T04:30:47;7.47;;;6.97;;
3066;SDS011;1544;48.834;9.194;2022-07-29T04:33:19;7.97;;;7.40;;
3066;SDS011;1544;48.834;9.194;2022-07-29T04:35:50;9.40;;;8.63;;
3066;SDS011;1544;48.834;9.194;2022-07-29T04:38:24;8.20;;;7.70;;
3066;SDS011;1544;48.834;9.194;2022-07-29T04:40:55;7.73;;;7.23;;
3066;SDS011;1544;48.834;9.194;2022-07-29T04:43:26;8.60;;;8.00;;
3066;SDS011;1544;48.834;9.194;2022-07-29T04:46:06;8.70;;;8.00;;
3066;SDS011;1544;48.834;9.194;2022-07-29T04:48:37;8.50;;;7.90;;
3066;SDS011;1544;48.834;9.194;2022-07-29T04:51:08;8.03;;;7.43;;
3066;SDS011;1544;48.834;9.194;2022-07-29T04:53:40;7.30;;;6.80;;
3066;SDS011;1544;48.834;9.194;2022-07-29T04:56:11;7.73;;;6.87;;
3066;SDS011;1544;48.834;9.194;2022-07-29T04:58:42;6.97;;;6.57;;
3066;SDS011;1544;48.834;9.194;2022-07-29T05:01:13;8.53;;;7.57;;
3066;SDS011;1544;48.834;9.194;2022-07-29T05:03:45;7.57;;;7.17;;
3066;SDS011;1544;48.834;9.194;2022-07-29T05:06:16;6.93;;;6.53;;
3066;SDS011;1544;48.834;9.194;2022-07-29T05:08:47;6.60;;;6.20;;
3066;SDS011;1544;48.834;9.194;2022-07-29T05:11:18;8.07;;;7.37;;
3066;SDS011;1544;48.834;9.194;2022-07-29T05:13:53;7.83;;;7.33;;
3066;SDS011;1544;48.834;9.194;2022-07-29T05:16:24;7.43;;;6.80;;
3066;SDS011;1544;48.834;9.194;2022-07-29T05:18:55;8.00;;;7.50;;
3066;SDS011;1544;48.834;9.194;2022-07-29T05:21:26;7.63;;;6.97;;
3066;SDS011;1544;48.834;9.194;2022-07-29T05:23:57;8.10;;;7.50;;
3066;SDS011;1544;48.834;9.194;2022-07-29T05:26:28;6.77;;;6.17;;
3066;SDS011;1544;48.834;9.194;2022-07-29T05:28:59;6.70;;;6.30;;
3066;SDS011;1544;48.834;9.194;2022-07-29T05:31:30;6.70;;;6.20;;
3066;SDS011;1544;48.834;9.194;2022-07-29T05:34:02;4.90;;;4.70;;
3066;SDS011;1544;48.834;9.194;2022-07-29T05:36:33;5.00;;;4.60;;
3066;SDS011;1544;48.834;9.194;2022-07-29T05:39:04;5.17;;;4.90;;
3066;SDS011;1544;48.834;9.194;2022-07-29T05:41:35;4.80;;;4.60;;
3066;SDS011;1544;48.834;9.194;2022-07-29T05:44:06;5.43;;;5.10;;
3066;SDS011;1544;48.834;9.194;2022-07-29T05:46:37;4.77;;;4.57;;
3066;SDS011;1544;48.834;9.194;2022-07-29T05:49:08;6.00;;;5.60;;
3066;SDS011;1544;48.834;9.194;2022-07-29T05:51:56;6.37;;;5.80;;
3066;SDS011;1544;48.834;9.194;2022-07-29T05:54:27;5.37;;;4.97;;
3066;SDS011;1544;48.834;9.194;2022-07-29T05:56:58;5.60;;;5.20;;
3066;SDS011;1544;48.834;9.194;2022-07-29T05:59:29;6.07;;;5.53;;
3066;SDS011;1544;48.834;9.194;2022-07-29T06:02:00;5.83;;;5.27;;
3066;SDS011;1544;48.834;9.194;2022-07-29T06:04:32;6.67;;;6.10;;
3066;SDS011;1544;48.834;9.194;2022-07-29T06:07:04;5.17;;;4.87;;
3066;SDS011;1544;48.834;9.194;2022-07-29T06:09:35;5.77;;;5.47;;
3066;SDS011;1544;48.834;9.194;2022-07-29T06:12:06;4.57;;;4.33;;
3066;SDS011;1544;48.834;9.194;2022-07-29T06:14:37;4.97;;;4.73;;
3066;SDS011;1544;48.834;9.194;2022-07-29T06:17:09;5.27;;;4.80;;
3066;SDS011;1544;48.834;9.194;2022-07-29T06:19:41;4.23;;;4.03;;
3066;SDS011;1544;48.834;9.194;2022-07-29T06:22:14;4.10;;;3.90;;
3066;SDS011;1544;48.834;9.194;2022-07-29T06:24:47;3.53;;;3.33;;
3066;SDS011;1544;48.834;9.194;2022-07-29T06:27:18;4.07;;;3.77;;
3066;SDS011;1544;48.834;9.194;2022-07-29T06:29:49;3.80;;;3.60;;
3066;SDS011;1544;48.834;9.194;2022-07-29T06:32:20;3.20;;;3.00;;
3066;SDS011;1544;48.834;9.194;2022-07-29T06:34:56;3.47;;;3.27;;
3066;SDS011;1544;48.834;9.194;2022-07-29T06:37:47;2.90;;;2.70;;
3066;SDS011;1544;48.834;9.194;2022-07-29T06:40:23;2.73;;;2.53;;
3066;SDS011;1544;48.834;9.194;2022-07-29T06:43:12;2.70;;;2.60;;
3066;SDS011;1544;48.834;9.194;2022-07-29T06:45:43;2.80;;;2.70;;
3066;SDS011;1544;48.834;9.194;2022-07-29T06:48:14;3.00;;;2.73;;
3066;SDS011;1544;48.834;9.194;2022-07-29T06:50:45;2.83;;;2.73;;
3066;SDS011;1544;48.834;9.194;2022-07-29T06:53:16;3.23;;;3.03;;
3066;SDS011;1544;48.834;9.194;2022-07-29T06:55:48;2.53;;;2.43;;
3066;SDS011;1544;48.834;9.194;2022-07-29T06:58:19;2.90;;;2.80;;
3066;SDS011;1544;48.834;9.194;2022-07-29T07:01:01;3.13;;;3.03;;
3066;SDS011;1544;48.834;9.194;2022-07-29T07:03:35;3.00;;;2.80;;
3066;SDS011;1544;48.834;9.194;2022-07-29T07:06:06;2.90;;;2.80;;
3066;SDS011;1544;48.834;9.194;2022-07-29T07:08:43;2.17;;;2.03;;
3066;SDS011;1544;48.834;9.194;2022-07-29T07:11:15;2.83;;;2.73;;
3066;SDS011;1544;48.834;9.194;2022-07-29T07:13:46;2.83;;;2.73;;
3066;SDS011;1544;48.834;9.194;2022-07-29T07:16:17;3.43;;;3.23;;
3066;SDS011;1544;48.834;9.194;2022-07-29T07:18:48;3.63;;;2.53;;
3066;SDS011;1544;48.834;9.194;2022-07-29T07:21:19;3.30;;;3.10;;
3066;SDS011;1544;48.834;9.194;2022-07-29T07:23:50;5.00;;;3.10;;
3066;SDS011;1544;48.834;9.194;2022-07-29T07:26:21;3.33;;;3.13;;
3066;SDS011;1544;48.834;9.194;2022-07-29T07:28:52;3.60;;;3.37;;
3066;SDS011;1544;48.834;9.194;2022-07-29T07:31:24;2.40;;;2.30;;
3066;SDS011;1544;48.834;9.194;2022-07-29T07:33:55;2.93;;;2.73;;
3066;SDS011;1544;48.834;9.194;2022-07-29T07:36:26;3.30;;;3.10;;
3066;SDS011;1544;48.834;9.194;2022-07-29T07:38:57;5.30;;;2.60;;
3066;SDS011;1544;48.834;9.194;2022-07-29T07:41:28;2.80;;;2.60;;
3066;SDS011;1544;48.834;9.194;2022-07-29T07:44:01;3.23;;;3.03;;
3066;SDS011;1544;48.834;9.194;2022-07-29T07:46:33;3.10;;;2.90;;
3066;SDS011;1544;48.834;9.194;2022-07-29T07:49:04;2.97;;;2.67;;
3066;SDS011;1544;48.834;9.194;2022-07-29T07:51:35;3.20;;;3.00;;
3066;SDS011;1544;48.834;9.194;2022-07-29T07:54:07;5.07;;;2.87;;
3066;SDS011;1544;48.834;9.194;2022-07-29T07:56:38;3.10;;;2.80;;
3066;SDS011;1544;48.834;9.194;2022-07-29T07:59:09;3.17;;;3.00;;
3066;SDS011;1544;48.834;9.194;2022-07-29T08:01:41;3.17;;;2.97;;
3066;SDS011;1544;48.834;9.194;2022-07-29T08:04:25;4.90;;;2.73;;
3066;SDS011;1544;48.834;9.194;2022-07-29T08:06:58;3.47;;;3.27;;
3066;SDS011;1544;48.834;9.194;2022-07-29T08:09:30;3.03;;;2.83;;
3066;SDS011;1544;48.834;9.194;2022-07-29T08:12:01;2.93;;;2.60;;
3066;SDS011;1544;48.834;9.194;2022-07-29T08:14:34;3.67;;;3.47;;
3066;SDS011;1544;48.834;9.194;2022-07-29T08:17:05;4.10;;;3.77;;
3066;SDS011;1544;48.834;9.194;2022-07-29T08:19:36;3.47;;;3.13;;
3066;SDS011;1544;48.834;9.194;2022-07-29T08:22:07;2.80;;;2.70;;
3066;SDS011;1544;48.834;9.194;2022-07-29T08:24:38;3.40;;;3.20;;
3066;SDS011;1544;48.834;9.194;2022-07-29T08:27:23;4.33;;;4.03;;
3066;SDS011;1544;48.834;9.194;2022-07-29T08:30:13;4.70;;;4.40;;
3066;SDS011;1544;48.834;9.194;2022-07-29T08:32:47;3.40;;;3.30;;
3066;SDS011;1544;48.834;9.194;2022-07-29T08:35:24;3.67;;;3.47;;
3066;SDS011;1544;48.834;9.194;2022-07-29T08:37:55;3.97;;;3.70;;
3066;SDS011;1544;48.834;9.194;2022-07-29T08:40:27;3.53;;;3.33;;
3066;SDS011;1544;48.834;9.194;2022-07-29T08:43:05;3.90;;;3.60;;
3066;SDS011;1544;48.834;9.194;2022-07-29T08:45:45;3.50;;;3.30;;
3066;SDS011;1544;48.834;9.194;2022-07-29T08:48:20;3.37;;;3.27;;
3066;SDS011;1544;48.834;9.194;2022-07-29T08:50:54;4.03;;;3.73;;
3066;SDS011;1544;48.834;9.194;2022-07-29T08:53:26;3.80;;;3.60;;
3066;SDS011;1544;48.834;9.194;2022-07-29T08:55:59;3.60;;;3.30;;
3066;SDS011;1544;48.834;9.194;2022-07-29T08:58:31;3.77;;;3.57;;
3066;SDS011;1544;48.834;9.194;2022-07-29T09:01:07;4.00;;;3.80;;
3066;SDS011;1544;48.834;9.194;2022-07-29T09:03:43;3.80;;;3.60;;
3066;SDS011;1544;48.834;9.194;2022-07-29T09:06:17;4.10;;;3.90;;
3066;SDS011;1544;48.834;9.194;2022-07-29T09:08:49;3.93;;;3.73;;
3066;SDS011;1544;48.834;9.194;2022-07-29T09:11:20;4.80;;;4.40;;
3066;SDS011;1544;48.834;9.194;2022-07-29T09:13:51;4.00;;;3.80;;
3066;SDS011;1544;48.834;9.194;2022-07-29T09:16:23;4.57;;;4.27;;
3066;SDS011;1544;48.834;9.194;2022-07-29T09:19:21;4.07;;;3.80;;
3066;SDS011;1544;48.834;9.194;2022-07-29T09:21:58;4.97;;;4.50;;
3066;SDS011;1544;48.834;9.194;2022-07-29T09:27:22;3.93;;;3.70;;
3066;SDS011;1544;48.834;9.194;2022-07-29T09:30:06;4.10;;;3.90;;
3066;SDS011;1544;48.834;9.194;2022-07-29T09:33:16;4.60;;;4.40;;
3066;SDS011;1544;48.834;9.194;2022-07-29T09:35:40;4.63;;;4.37;;
3066;SDS011;1544;48.834;9.194;2022-07-29T09:38:25;4.97;;;4.67;;
3066;SDS011;1544;48.834;9.194;2022-07-29T09:40:58;5.30;;;4.83;;
3066;SDS011;1544;48.834;9.194;2022-07-29T09:43:34;3.87;;;3.67;;
3066;SDS011;1544;48.834;9.194;2022-07-29T09:46:15;4.80;;;4.50;;
3066;SDS011;1544;48.834;9.194;2022-07-29T09:49:06;3.83;;;3.63;;
3066;SDS011;1544;48.834;9.194;2022-07-29T09:51:43;4.57;;;4.17;;
3066;SDS011;1544;48.834;9.194;2022-07-29T09:54:26;4.57;;;4.37;;
3066;SDS011;1544;48.834;9.194;2022-07-29T09:56:58;5.30;;;4.60;;
3066;SDS011;1544;48.834;9.194;2022-07-29T09:59:29;4.67;;;4.47;;
3066;SDS011;1544;48.834;9.194;2022-07-29T10:02:00;4.93;;;4.57;;
3066;SDS011;1544;48.834;9.194;2022-07-29T10:04:38;4.70;;;4.40;;
3066;SDS011;1544;48.834;9.194;2022-07-29T10:07:13;5.00;;;4.50;;
3066;SDS011;1544;48.834;9.194;2022-07-29T10:09:54;5.97;;;5.47;;
3066;SDS011;1544;48.834;9.194;2022-07-29T10:12:27;5.93;;;5.00;;
3066;SDS011;1544;48.834;9.194;2022-07-29T10:14:58;3.90;;;3.70;;
3066;SDS011;1544;48.834;9.194;2022-07-29T10:17:32;5.37;;;4.80;;
3066;SDS011;1544;48.834;9.194;2022-07-29T10:20:04;4.80;;;4.50;;
3066;SDS011;1544;48.834;9.194;2022-07-29T10:22:41;5.03;;;4.70;;
3066;SDS011;1544;48.834;9.194;2022-07-29T10:25:23;4.90;;;4.50;;
3066;SDS011;1544;48.834;9.194;2022-07-29T10:27:55;5.30;;;4.20;;
3066;SDS011;1544;48.834;9.194;2022-07-29T10:30:26;4.80;;;4.50;;
3066;SDS011;1544;48.834;9.194;2022-07-29T10:44:22;6.13;;;5.70;;
3066;SDS011;1544;48.834;9.194;2022-07-29T10:46:55;5.10;;;4.80;;
3066;SDS011;1544;48.834;9.194;2022-07-29T10:49:27;5.83;;;5.47;;
3066;SDS011;1544;48.834;9.194;2022-07-29T10:52:09;5.40;;;5.13;;
3066;SDS011;1544;48.834;9.194;2022-07-29T10:54:47;5.70;;;5.40;;
3066;SDS011;1544;48.834;9.194;2022-07-29T10:57:28;5.23;;;4.70;;
3066;SDS011;1544;48.834;9.194;2022-07-29T11:00:25;6.13;;;5.43;;
3066;SDS011;1544;48.834;9.194;2022-07-29T11:02:59;6.40;;;5.77;;
3066;SDS011;1544;48.834;9.194;2022-07-29T11:05:57;5.60;;;5.20;;
3066;SDS011;1544;48.834;9.194;2022-07-29T11:08:29;8.93;;;6.20;;
3066;SDS011;1544;48.834;9.194;2022-07-29T11:13:52;5.93;;;5.60;;
3066;SDS011;1544;48.834;9.194;2022-07-29T11:16:31;6.53;;;6.03;;
3066;SDS011;1544;48.834;9.194;2022-07-29T11:19:30;7.17;;;6.57;;
3066;SDS011;1544;48.834;9.194;2022-07-29T11:22:02;6.83;;;6.33;;
3066;SDS011;1544;48.834;9.194;2022-07-29T11:24:34;5.70;;;5.50;;
3066;SDS011;1544;48.834;9.194;2022-07-29T11:27:10;6.77;;;6.27;;
3066;SDS011;1544;48.834;9.194;2022-07-29T11:30:04;6.07;;;5.77;;
3066;SDS011;1544;48.834;9.194;2022-07-29T11:32:38;6.30;;;5.90;;
3066;SDS011;1544;48.834;9.194;2022-07-29T11:35:21;8.53;;;7.67;;
3066;SDS011;1544;48.834;9.194;2022-07-29T11:38:25;6.43;;;5.97;;
3066;SDS011;1544;48.834;9.194;2022-07-29T11:43:57;7.07;;;6.57;;
3066;SDS011;1544;48.834;9.194;2022-07-29T11:46:49;7.97;;;7.37;;
3066;SDS011;1544;48.834;9.194;2022-07-29T11:49:25;6.47;;;6.07;;
3066;SDS011;1544;48.834;9.194;2022-07-29T11:52:17;6.90;;;5.87;;
3066;SDS011;1544;48.834;9.194;2022-07-29T11:54:52;7.30;;;5.40;;
3066;SDS011;1544;48.834;9.194;2022-07-29T11:57:49;7.43;;;6.30;;
3066;SDS011;1544;48.834;9.194;2022-07-29T12:00:37;6.13;;;5.73;;
3066;SDS011;1544;48.834;9.194;2022-07-29T12:03:11;4.70;;;4.40;;
3066;SDS011;1544;48.834;9.194;2022-07-29T12:05:43;5.67;;;5.17;;
3066;SDS011;1544;48.834;9.194;2022-07-29T12:08:21;4.70;;;4.40;;
3066;SDS011;1544;48.834;9.194;2022-07-29T12:10:53;5.90;;;5.50;;
3066;SDS011;1544;48.834;9.194;2022-07-29T12:13:24;5.10;;;4.80;;
3066;SDS011;1544;48.834;9.194;2022-07-29T12:16:07;5.37;;;5.07;;
3066;SDS011;1544;48.834;9.194;2022-07-29T12:18:54;4.50;;;4.30;;
3066;SDS011;1544;48.834;9.194;2022-07-29T12:21:27;3.70;;;3.50;;
3066;SDS011;1544;48.834;9.194;2022-07-29T12:24:00;4.00;;;3.70;;
3066;SDS011;1544;48.834;9.194;2022-07-29T12:26:57;3.80;;;3.50;;
3066;SDS011;1544;48.834;9.194;2022-07-29T12:29:29;4.00;;;3.43;;
3066;SDS011;1544;48.834;9.194;2022-07-29T12:32:04;3.23;;;3.03;;
3066;SDS011;1544;48.834;9.194;2022-07-29T12:34:48;3.13;;;2.93;;
3066;SDS011;1544;48.834;9.194;2022-07-29T12:37:20;3.07;;;2.70;;
3066;SDS011;1544;48.834;9.194;2022-07-29T12:40:12;3.13;;;3.03;;
3066;SDS011;1544;48.834;9.194;2022-07-29T12:43:07;2.70;;;2.60;;
3066;SDS011;1544;48.834;9.194;2022-07-29T12:45:44;2.53;;;2.43;;
3066;SDS011;1544;48.834;9.194;2022-07-29T12:48:37;2.77;;;2.67;;
3066;SDS011;1544;48.834;9.194;2022-07-29T12:51:10;3.30;;;3.10;;
3066;SDS011;1544;48.834;9.194;2022-07-29T12:54:01;2.63;;;2.53;;
3066;SDS011;1544;48.834;9.194;2022-07-29T12:56:46;2.77;;;2.57;;
3066;SDS011;1544;48.834;9.194;2022-07-29T12:59:30;2.97;;;2.80;;
3066;SDS011;1544;48.834;9.194;2022-07-29T13:02:01;2.90;;;2.70;;
3066;SDS011;1544;48.834;9.194;2022-07-29T13:04:33;2.57;;;2.47;;
3066;SDS011;1544;48.834;9.194;2022-07-29T13:07:07;3.53;;;3.43;;
3066;SDS011;1544;48.834;9.194;2022-07-29T13:09:40;4.53;;;4.23;;
3066;SDS011;1544;48.834;9.194;2022-07-29T13:12:15;6.97;;;5.20;;
3066;SDS011;1544;48.834;9.194;2022-07-29T13:14:47;5.57;;;5.07;;
3066;SDS011;1544;48.834;9.194;2022-07-29T13:17:21;5.63;;;4.87;;
3066;SDS011;1544;48.834;9.194;2022-07-29T13:20:04;4.87;;;4.57;;
3066;SDS011;1544;48.834;9.194;2022-07-29T13:22:40;4.83;;;4.47;;
3066;SDS011;1544;48.834;9.194;2022-07-29T13:25:22;4.07;;;3.87;;
3066;SDS011;1544;48.834;9.194;2022-07-29T13:28:04;3.00;;;2.90;;
3066;SDS011;1544;48.834;9.194;2022-07-29T13:30:35;3.53;;;3.40;;
3066;SDS011;1544;48.834;9.194;2022-07-29T13:33:13;3.73;;;3.53;;
3066;SDS011;1544;48.834;9.194;2022-07-29T13:35:44;4.83;;;4.40;;
3066;SDS011;1544;48.834;9.194;2022-07-29T13:38:16;4.03;;;3.73;;
3066;SDS011;1544;48.834;9.194;2022-07-29T13:40:47;4.50;;;4.30;;
3066;SDS011;1544;48.834;9.194;2022-07-29T13:43:18;3.80;;;3.70;;
3066;SDS011;1544;48.834;9.194;2022-07-29T13:45:49;4.70;;;4.40;;
3066;SDS011;1544;48.834;9.194;2022-07-29T13:48:20;4.77;;;4.47;;
3066;SDS011;1544;48.834;9.194;2022-07-29T13:50:51;4.97;;;4.70;;
3066;SDS011;1544;48.834;9.194;2022-07-29T13:53:22;4.80;;;4.50;;
3066;SDS011;1544;48.834;9.194;2022-07-29T13:55:56;3.50;;;3.30;;
3066;SDS011;1544;48.834;9.194;2022-07-29T13:58:27;4.43;;;4.13;;
3066;SDS011;1544;48.834;9.194;2022-07-29T14:00:59;4.93;;;4.53;;
3066;SDS011;1544;48.834;9.194;2022-07-29T14:03:30;4.63;;;4.27;;
3066;SDS011;1544;48.834;9.194;2022-07-29T14:06:01;4.90;;;4.50;;
3066;SDS011;1544;48.834;9.194;2022-07-29T14:08:32;4.73;;;4.43;;
3066;SDS011;1544;48.834;9.194;2022-07-29T14:11:03;3.83;;;3.60;;
3066;SDS011;1544;48.834;9.194;2022-07-29T14:13:34;4.43;;;4.10;;
3066;SDS011;1544;48.834;9.194;2022-07-29T14:16:06;5.10;;;4.60;;
3066;SDS011;1544;48.834;9.194;2022-07-29T14:18:37;3.83;;;3.63;;
3066;SDS011;1544;48.834;9.194;2022-07-29T14:21:08;4.40;;;4.00;;
3066;SDS011;1544;48.834;9.194;2022-07-29T14:23:39;4.60;;;4.20;;
3066;SDS011;1544;48.834;9.194;2022-07-29T14:26:13;4.17;;;3.97;;
3066;SDS011;1544;48.834;9.194;2022-07-29T14:28:50;4.93;;;4.53;;
3066;SDS011;1544;48.834;9.194;2022-07-29T14:31:21;4.07;;;3.87;;
3066;SDS011;1544;48.834;9.194;2022-07-29T14:33:53;4.77;;;4.47;;
3066;SDS011;1544;48.834;9.194;2022-07-29T14:36:28;5.20;;;4.87;;
3066;SDS011;1544;48.834;9.194;2022-07-29T14:38:59;4.40;;;4.20;;
3066;SDS011;1544;48.834;9.194;2022-07-29T14:41:31;4.43;;;4.13;;
3066;SDS011;1544;48.834;9.194;2022-07-29T14:44:02;4.93;;;4.73;;
3066;SDS011;1544;48.834;9.194;2022-07-29T14:46:33;5.77;;;4.30;;
3066;SDS011;1544;48.834;9.194;2022-07-29T14:49:05;5.10;;;4.77;;
3066;SDS011;1544;48.834;9.194;2022-07-29T14:51:39;6.17;;;4.80;;
3066;SDS011;1544;48.834;9.194;2022-07-29T14:54:11;4.70;;;4.30;;
3066;SDS011;1544;48.834;9.194;2022-07-29T14:56:42;3.90;;;3.70;;
3066;SDS011;1544;48.834;9.194;2022-07-29T14:59:16;4.93;;;4.53;;
3066;SDS011;1544;48.834;9.194;2022-07-29T15:01:47;5.13;;;4.73;;
3066;SDS011;1544;48.834;9.194;2022-07-29T15:04:18;4.60;;;4.40;;
3066;SDS011;1544;48.834;9.194;2022-07-29T15:06:51;4.73;;;4.00;;
3066;SDS011;1544;48.834;9.194;2022-07-29T15:09:22;4.30;;;4.00;;
3066;SDS011;1544;48.834;9.194;2022-07-29T15:11:53;4.50;;;4.27;;
3066;SDS011;1544;48.834;9.194;2022-07-29T15:14:24;4.80;;;4.50;;
3066;SDS011;1544;48.834;9.194;2022-07-29T15:16:55;5.83;;;5.40;;
3066;SDS011;1544;48.834;9.194;2022-07-29T15:19:26;5.07;;;4.77;;
3066;SDS011;1544;48.834;9.194;2022-07-29T15:21:59;5.23;;;4.93;;
3066;SDS011;1544;48.834;9.194;2022-07-29T15:24:31;5.30;;;5.10;;
3066;SDS011;1544;48.834;9.194;2022-07-29T15:27:02;6.47;;;6.07;;
3066;SDS011;1544;48.834;9.194;2022-07-29T15:29:33;7.83;;;7.20;;
3066;SDS011;1544;48.834;9.194;2022-07-29T15:32:04;6.20;;;5.80;;
3066;SDS011;1544;48.834;9.194;2022-07-29T15:34:37;5.87;;;5.50;;
3066;SDS011;1544;48.834;9.194;2022-07-29T15:37:09;5.50;;;5.20;;
3066;SDS011;1544;48.834;9.194;2022-07-29T15:39:41;6.70;;;6.20;;
3066;SDS011;1544;48.834;9.194;2022-07-29T15:42:12;6.43;;;5.93;;
3066;SDS011;1544;48.834;9.194;2022-07-29T15:44:47;6.30;;;5.90;;
3066;SDS011;1544;48.834;9.194;2022-07-29T15:47:18;7.57;;;6.10;;
3066;SDS011;1544;48.834;9.194;2022-07-29T15:49:50;6.00;;;5.60;;
3066;SDS011;1544;48.834;9.194;2022-07-29T15:52:21;6.30;;;5.70;;
3066;SDS011;1544;48.834;9.194;2022-07-29T15:54:55;5.67;;;5.17;;
3066;SDS011;1544;48.834;9.194;2022-07-29T15:57:27;5.73;;;5.43;;
3066;SDS011;1544;48.834;9.194;2022-07-29T15:59:58;5.50;;;5.10;;
3066;SDS011;1544;48.834;9.194;2022-07-29T16:02:29;6.60;;;6.03;;
3066;SDS011;1544;48.834;9.194;2022-07-29T16:05:01;5.33;;;4.93;;
3066;SDS011;1544;48.834;9.194;2022-07-29T16:07:32;6.33;;;5.83;;
3066;SDS011;1544;48.834;9.194;2022-07-29T16:10:03;6.10;;;5.60;;
3066;SDS011;1544;48.834;9.194;2022-07-29T16:12:37;6.70;;;6.10;;
3066;SDS011;1544;48.834;9.194;2022-07-29T16:15:08;7.40;;;6.83;;
3066;SDS011;1544;48.834;9.194;2022-07-29T16:17:40;6.67;;;6.17;;
3066;SDS011;1544;48.834;9.194;2022-07-29T16:20:11;6.00;;;5.50;;
3066;SDS011;1544;48.834;9.194;2022-07-29T16:22:43;5.40;;;5.10;;
3066;SDS011;1544;48.834;9.194;2022-07-29T16:25:14;4.70;;;4.40;;
3066;SDS011;1544;48.834;9.194;2022-07-29T16:27:45;5.30;;;4.90;;
3066;SDS011;1544;48.834;9.194;2022-07-29T16:30:16;5.60;;;5.20;;
3066;SDS011;1544;48.834;9.194;2022-07-29T16:32:47;5.37;;;4.97;;
3066;SDS011;1544;48.834;9.194;2022-07-29T16:35:18;4.60;;;4.40;;
3066;SDS011;1544;48.834;9.194;2022-07-29T16:37:49;5.53;;;5.23;;
3066;SDS011;1544;48.834;9.194;2022-07-29T16:40:20;6.13;;;5.63;;
3066;SDS011;1544;48.834;9.194;2022-07-29T16:42:52;6.50;;;6.00;;